createdAt,value
2022-11-07T00:07:22.060Z,10.9
2022-11-07T00:17:24.663Z,10.9
2022-11-07T00:27:27.247Z,10.9
2022-11-07T00:37:28.861Z,11
2022-11-07T00:47:30.895Z,11
2022-11-07T00:57:33.560Z,11.1
2022-11-07T01:07:36.100Z,11.1
2022-11-07T01:17:38.346Z,11.1
2022-11-07T01:27:40.467Z,11.1
2022-11-07T01:37:42.797Z,11.1
2022-11-07T01:47:44.603Z,11
2022-11-07T01:57:46.683Z,10.9
2022-11-07T02:07:49.118Z,10.8
2022-11-07T02:17:51.329Z,10.7
2022-11-07T02:27:53.522Z,10.6
2022-11-07T02:37:55.637Z,10.6
2022-11-07T02:47:57.790Z,10.6
2022-11-07T02:58:00.025Z,10.5
2022-11-07T03:08:02.499Z,10.6
2022-11-07T03:18:04.863Z,10.7
2022-11-07T03:28:06.688Z,10.8
2022-11-07T03:38:08.567Z,10.9
2022-11-07T03:48:11.206Z,10.9
2022-11-07T03:58:13.024Z,10.9
2022-11-07T04:08:15.482Z,10.8
2022-11-07T04:18:18.056Z,10.8
2022-11-07T04:28:20.629Z,10.7
2022-11-07T04:38:23.204Z,10.7
2022-11-07T04:48:24.987Z,10.7
2022-11-07T04:58:27.216Z,10.7
2022-11-07T05:08:29.208Z,10.7
2022-11-07T05:18:31.222Z,10.7
2022-11-07T05:28:38.536Z,10.7
2022-11-07T05:38:34.803Z,10.7
2022-11-07T05:48:37.312Z,10.8
2022-11-07T05:58:39.948Z,10.8
2022-11-07T06:08:41.905Z,10.8
2022-11-07T06:18:44.007Z,10.8
2022-11-07T06:28:46.103Z,10.9
2022-11-07T06:38:48.643Z,11
2022-11-07T06:48:50.621Z,11.1
2022-11-07T06:58:53.173Z,11.1
2022-11-07T07:18:57.693Z,11.6
2022-11-07T07:28:59.635Z,11.8
2022-11-07T07:39:01.616Z,12
2022-11-07T07:49:03.897Z,12.2
2022-11-07T07:59:06.282Z,12.3
2022-11-07T08:09:08.462Z,12.4
2022-11-07T08:12:03.008Z,12.4
2022-11-07T08:19:21.046Z,12.6
2022-11-07T08:29:23.401Z,12.6
2022-11-07T08:39:25.680Z,12.7
2022-11-07T08:49:27.451Z,12.7
2022-11-07T08:59:29.658Z,12.9
2022-11-07T09:09:32.141Z,13.1
2022-11-07T09:19:34.086Z,12.9
2022-11-07T09:29:35.831Z,12.9
2022-11-07T09:39:38.468Z,12.9
2022-11-07T09:49:41.146Z,13
2022-11-07T10:09:45.694Z,13.2
2022-11-07T10:19:47.674Z,13.3
2022-11-07T10:29:49.453Z,13.1
2022-11-07T10:39:52.006Z,12.6
2022-11-07T10:49:53.741Z,12.2
2022-11-07T10:59:56.077Z,12.1
2022-11-07T11:09:58.266Z,11.9
2022-11-07T11:20:00.196Z,12
2022-11-07T11:30:02.103Z,12.1
2022-11-07T11:40:04.222Z,12.3
2022-11-07T11:50:06.489Z,12.6
2022-11-07T12:10:10.684Z,13
2022-11-07T12:20:13.073Z,13.3
2022-11-07T12:30:14.983Z,13.6
2022-11-07T12:40:16.771Z,13.7
2022-11-07T12:50:18.720Z,13.9
2022-11-07T13:00:26.122Z,14
2022-11-07T13:10:23.555Z,14
2022-11-07T13:20:26.227Z,14
2022-11-07T13:30:28.538Z,14
2022-11-07T13:40:30.263Z,14.1
2022-11-07T13:50:31.991Z,14.1
2022-11-07T14:00:34.826Z,14.2
2022-11-07T14:20:38.475Z,14.1
2022-11-07T14:30:40.543Z,14.2
2022-11-07T14:40:43.163Z,14.2
2022-11-07T14:50:45.522Z,14.3
2022-11-07T15:00:47.275Z,14.2
2022-11-07T15:10:48.988Z,14.2
2022-11-07T15:20:50.817Z,14.1
2022-11-07T15:30:53.022Z,14.1
2022-11-07T15:50:57.756Z,14
2022-11-07T16:01:00.230Z,14
2022-11-07T16:11:02.302Z,14
2022-11-07T16:21:04.562Z,14
2022-11-07T16:31:06.548Z,14.1
2022-11-07T16:41:08.292Z,14
2022-11-07T16:51:10.140Z,14
2022-11-07T17:01:12.344Z,14
2022-11-07T17:11:14.445Z,14
2022-11-07T17:21:16.773Z,13.9
2022-11-07T17:31:18.792Z,14
2022-11-07T17:41:20.960Z,14
2022-11-07T17:51:23.093Z,13.9
2022-11-07T18:01:25.160Z,13.9
2022-11-07T18:11:27.018Z,13.8
2022-11-07T18:21:29.650Z,13.9
2022-11-07T18:41:34.511Z,14
2022-11-07T18:51:36.474Z,14
2022-11-07T19:01:39.154Z,14
2022-11-07T19:11:41.120Z,14
2022-11-07T19:21:43.768Z,13.9
2022-11-07T19:31:45.780Z,14
2022-11-07T19:41:48.294Z,13.9
2022-11-07T19:51:50.890Z,13.9
2022-11-07T20:02:10.961Z,13.8
2022-11-07T20:11:55.138Z,13.8
2022-11-07T20:21:56.952Z,14
2022-11-07T20:31:58.610Z,14
2022-11-07T20:42:01.148Z,14.2
2022-11-07T20:52:03.094Z,14.1
2022-11-07T21:02:05.057Z,14.2
2022-11-07T21:12:07.654Z,14.2
2022-11-07T21:32:11.768Z,13.9
2022-11-07T21:42:14.475Z,13.8
2022-11-07T21:52:16.254Z,13.7
2022-11-07T22:02:18.724Z,13.5
2022-11-07T22:12:20.690Z,13.4
2022-11-07T22:22:22.477Z,13.3
2022-11-07T22:32:24.808Z,13.2
2022-11-07T22:42:27.029Z,13.1
2022-11-07T22:52:29.613Z,13.1
2022-11-07T23:02:31.853Z,12.9
2022-11-07T23:12:34.124Z,12.7
2022-11-07T23:22:36.526Z,12.6
2022-11-07T23:32:38.242Z,12.5
2022-11-07T23:42:40.427Z,12.5
2022-11-07T23:52:42.614Z,12.4
